Weston Point, United Kingdom

2:07 PM GMT on November 19, 2017 (GMT +0000)
Foxley Manor - Foxley Heath | | Change Station

Elev 56 ft 53.37 °N, 2.74 °W | Updated 3 minutes ago

Partly Cloudy
Partly Cloudy
47.3 °F
Feels Like 47 °F
N
0.0
Wind Variable Wind from South
Gusts 0.0 mph

Today
High -- | Low -- °F
--% Chance of Precip.
Yesterday
High -- | Low -- °F
Precip. -- in
Pressure 30.21 in
Visibility 6.2 miles
Clouds Scattered Clouds 3800 ft
Windchill 47 °F
Dew Point 34 °F
Humidity 61%
Rainfall 0.00 in
Snow Depth Not available.
7:43 AM 4:08 PM
New Moon, 1% visible
METAR EGGP 191350Z VRB03KT 9999 SCT038 09/03 Q1023
Pressure 30.21 in
Visibility 6.2 miles
Clouds Scattered Clouds 3800 ft
Windchill 47 °F
Dew Point 34 °F
Humidity 61%
Rainfall 0.00 in
Snow Depth Not available.
7:43 AM 4:08 PM
New Moon, 1% visible
METAR EGGP 191350Z VRB03KT 9999 SCT038 09/03 Q1023

Get Severe Weather Alerts

Thanks for signing up!

Be on the lookout for a verification email in your inbox.

You'll start receiving the daily forecast at 6 AM.

×

10-Day Weather Forecast

×

Almanac

Astronomy

Nov. 19, 2017 Rise Set
Actual Time
Civil Twilight
Nautical Twilight
Astronomical Twilight
Moon
Length of Visible Light
Length of Day
Tomorrow will be .
, % of the Moon is Illuminated

Today's Extremes

Country Highs Country Lows

Community

WunderPhotos

Category 6

Welcome to Category 6. This is the collective home for Weather Underground's featured writeups by Dr. Jeff Masters (right), Bob Henson (left), Chris Burt, and other regular contributors.

Nearby

Air Quality

  Air Quality AQ Index Pollutant
Not available.

Snow Depth

Station Depth Elevation

Earthquake Activity

City Distance Mag. Time & Date
Minimum magnitude displayed is 2.5.

Coastal Water Temperatures

Place Temperature

Stations

Nearby Weather Stations

Station Location Temp. Windchill Dew Point Humidity Wind Precip. Elev Updated Type